Time;durP1;ratioP1;P1;durP2;ratioP2;P2;SDS_P1;SDS_P2;PMS_P1;PMS_P2;Temp;Humidity;BMP_temperature;BMP_pressure;BME280_temperature;BME280_humidity;BME280_pressure;Samples;Min_cycle;Max_cycle;Signal;HPM_P1;HPM_P2
2023/12/02 00:01:06;;;;;;;17.35;9.70;;;-1.70;99.90;;;;;;5095536;28;20227;-66
2023/12/02 00:03:33;;;;;;;14.13;7.93;;;-1.70;99.90;;;;;;5095472;28;20684;-65
2023/12/02 00:06:00;;;;;;;11.57;8.65;;;-1.70;99.90;;;;;;5095641;28;20196;-64
2023/12/02 00:08:28;;;;;;;16.20;9.07;;;-1.70;99.90;;;;;;5095195;28;20207;-65
2023/12/02 00:10:55;;;;;;;11.85;8.75;;;-1.80;99.90;;;;;;5095824;28;20231;-65
2023/12/02 00:13:21;;;;;;;11.88;7.80;;;-1.80;99.90;;;;;;5096505;28;20202;-65
2023/12/02 00:15:48;;;;;;;14.25;7.85;;;-1.80;99.90;;;;;;5095682;28;20559;-64
2023/12/02 00:18:15;;;;;;;12.05;7.60;;;-1.70;99.90;;;;;;5095970;28;20250;-67
2023/12/02 00:20:42;;;;;;;13.57;8.85;;;-1.70;99.90;;;;;;5094975;28;20232;-66
2023/12/02 00:23:09;;;;;;;16.20;10.00;;;-1.70;99.90;;;;;;5094659;28;20291;-66
2023/12/02 00:25:37;;;;;;;14.95;9.40;;;-1.70;99.90;;;;;;5095093;28;20700;-65
2023/12/02 00:28:04;;;;;;;12.80;8.50;;;-1.70;99.90;;;;;;5097436;28;20279;-65
2023/12/02 00:30:31;;;;;;;16.10;11.07;;;-1.70;99.90;;;;;;5099041;28;20224;-67
2023/12/02 00:32:58;;;;;;;14.95;9.88;;;-1.70;99.90;;;;;;5099065;28;20204;-67
2023/12/02 00:35:25;;;;;;;15.82;10.73;;;-1.70;99.90;;;;;;5099073;28;20200;-65
2023/12/02 00:37:51;;;;;;;17.50;11.13;;;-1.70;99.90;;;;;;5099809;28;20220;-65
2023/12/02 00:40:18;;;;;;;19.10;10.90;;;-1.80;99.90;;;;;;5098856;28;20224;-66
2023/12/02 00:42:46;;;;;;;22.05;12.13;;;-1.80;99.90;;;;;;5100133;28;20206;-65
2023/12/02 00:45:13;;;;;;;16.70;10.70;;;-1.80;99.90;;;;;;5099139;28;20279;-65
2023/12/02 00:47:40;;;;;;;22.42;12.05;;;-1.90;99.90;;;;;;5099546;28;20223;-63
2023/12/02 00:50:08;;;;;;;19.55;11.10;;;-1.90;99.90;;;;;;5100482;28;20228;-64
2023/12/02 00:52:35;;;;;;;19.23;11.73;;;-1.90;99.90;;;;;;5100821;28;20204;-64
2023/12/02 00:55:02;;;;;;;17.92;9.98;;;-1.90;99.90;;;;;;5100258;28;20210;-65
2023/12/02 00:57:29;;;;;;;22.08;11.63;;;-2.00;99.90;;;;;;5100576;28;20338;-65
2023/12/02 00:59:57;;;;;;;21.02;11.57;;;-2.00;99.90;;;;;;5099792;28;20223;-66
2023/12/02 01:02:24;;;;;;;17.00;10.40;;;-2.00;99.90;;;;;;5100471;28;20212;-66
2023/12/02 01:04:50;;;;;;;24.25;12.32;;;-2.00;99.90;;;;;;5100320;28;20200;-66
2023/12/02 01:07:17;;;;;;;17.98;10.13;;;-2.00;99.90;;;;;;5101311;28;20200;-66
2023/12/02 01:09:44;;;;;;;19.13;11.45;;;-2.00;99.90;;;;;;5101732;28;20231;-66
2023/12/02 01:12:11;;;;;;;18.45;11.50;;;-2.00;99.90;;;;;;5102285;28;20291;-67
2023/12/02 01:14:38;;;;;;;15.38;10.10;;;-2.00;99.90;;;;;;5099259;28;20287;-65
2023/12/02 01:17:06;;;;;;;19.77;11.18;;;-2.00;99.90;;;;;;5097659;28;20196;-66
2023/12/02 01:19:32;;;;;;;19.80;11.60;;;-2.10;99.90;;;;;;5099438;28;20243;-66
2023/12/02 01:21:58;;;;;;;19.70;12.23;;;-2.10;99.90;;;;;;5097610;28;20181;-65
2023/12/02 01:24:25;;;;;;;19.45;11.75;;;-2.10;99.90;;;;;;5097985;28;20230;-65
2023/12/02 01:26:52;;;;;;;20.90;13.65;;;-2.10;99.90;;;;;;5098271;28;20201;-67
2023/12/02 01:29:19;;;;;;;21.77;11.90;;;-2.10;99.90;;;;;;5098098;28;20200;-66
2023/12/02 01:31:45;;;;;;;18.75;13.05;;;-2.10;99.90;;;;;;5098208;28;20295;-65
2023/12/02 01:34:14;;;;;;;22.60;12.38;;;-2.20;99.90;;;;;;5096637;28;20204;-64
2023/12/02 01:36:40;;;;;;;24.20;14.68;;;-2.20;99.90;;;;;;5098025;28;20200;-65
2023/12/02 01:39:07;;;;;;;20.35;12.23;;;-2.30;99.90;;;;;;5096883;28;20226;-65
2023/12/02 01:41:34;;;;;;;25.05;12.23;;;-2.30;99.90;;;;;;5099266;28;20566;-66
2023/12/02 01:44:01;;;;;;;21.10;13.15;;;-2.30;99.90;;;;;;5097566;28;20556;-64
2023/12/02 01:46:27;;;;;;;26.20;13.00;;;-2.30;99.90;;;;;;5098211;28;20208;-65
2023/12/02 01:48:55;;;;;;;25.80;14.20;;;-2.30;99.90;;;;;;5097396;28;20193;-66
2023/12/02 01:51:23;;;;;;;23.42;14.02;;;-2.20;99.90;;;;;;5098074;28;20225;-65
2023/12/02 01:53:50;;;;;;;28.83;16.27;;;-2.20;99.90;;;;;;5097762;28;20200;-65
2023/12/02 01:56:17;;;;;;;30.27;17.98;;;-2.20;99.90;;;;;;5097542;28;20214;-65
2023/12/02 01:58:44;;;;;;;22.83;12.98;;;-2.20;99.90;;;;;;5098803;28;20312;-65
2023/12/02 02:01:11;;;;;;;26.27;15.18;;;-2.20;99.90;;;;;;5096659;28;20219;-65
2023/12/02 02:03:36;;;;;;;25.05;13.82;;;-2.30;99.90;;;;;;5096244;28;20206;-65
2023/12/02 02:06:04;;;;;;;23.00;14.17;;;-2.20;99.90;;;;;;5097807;28;20295;-65
2023/12/02 02:08:32;;;;;;;26.50;13.73;;;-2.30;99.90;;;;;;5096522;28;20511;-65
2023/12/02 02:10:59;;;;;;;23.17;14.45;;;-2.20;99.90;;;;;;5096735;28;20585;-66
2023/12/02 02:13:27;;;;;;;23.85;13.15;;;-2.20;99.90;;;;;;5096328;28;20703;-66
2023/12/02 02:15:54;;;;;;;29.67;15.55;;;-2.20;99.90;;;;;;5096837;28;20204;-63
2023/12/02 02:18:21;;;;;;;23.23;14.60;;;-2.20;99.90;;;;;;5096572;28;20248;-65
2023/12/02 02:20:50;;;;;;;21.63;13.05;;;-2.20;99.90;;;;;;5096208;28;20236;-64
2023/12/02 02:23:19;;;;;;;23.45;13.48;;;-2.10;99.90;;;;;;5096458;28;20208;-64
2023/12/02 02:25:46;;;;;;;27.10;15.15;;;-2.10;99.90;;;;;;5096164;28;20201;-64
2023/12/02 02:28:13;;;;;;;23.95;14.02;;;-2.10;99.90;;;;;;5096004;28;20248;-64
2023/12/02 02:30:39;;;;;;;26.25;15.63;;;-2.10;99.90;;;;;;5096582;28;20311;-64
2023/12/02 02:33:06;;;;;;;27.02;16.08;;;-2.10;99.90;;;;;;5095979;28;20204;-65
2023/12/02 02:35:33;;;;;;;31.65;16.23;;;-2.10;99.90;;;;;;5095508;28;20200;-65
2023/12/02 02:38:00;;;;;;;25.90;14.10;;;-2.10;99.90;;;;;;5096176;28;20634;-66
2023/12/02 02:40:28;;;;;;;27.73;15.27;;;-2.10;99.90;;;;;;5097390;28;20223;-65
2023/12/02 02:42:56;;;;;;;30.85;15.93;;;-2.10;99.90;;;;;;5097341;28;20207;-66
2023/12/02 02:45:22;;;;;;;23.23;14.20;;;-2.10;99.90;;;;;;5096314;28;20211;-65
2023/12/02 02:47:49;;;;;;;29.10;15.95;;;-2.10;99.90;;;;;;5095861;28;20613;-65
2023/12/02 02:50:16;;;;;;;29.15;16.33;;;-2.10;99.90;;;;;;5096338;28;20307;-64
2023/12/02 02:52:43;;;;;;;32.75;18.50;;;-2.10;99.90;;;;;;5094999;28;20196;-65
2023/12/02 02:55:10;;;;;;;30.73;15.13;;;-2.10;99.90;;;;;;5095530;28;20200;-63
2023/12/02 02:57:38;;;;;;;36.45;15.85;;;-2.10;99.90;;;;;;5095855;28;20313;-65
2023/12/02 03:00:09;;;;;;;26.52;14.05;;;-2.20;99.90;;;;;;5095878;28;20224;-65
2023/12/02 03:02:36;;;;;;;27.40;16.27;;;-2.20;99.90;;;;;;5096279;28;20216;-63
2023/12/02 03:05:02;;;;;;;29.42;14.60;;;-2.20;99.90;;;;;;5096659;28;20200;-65
2023/12/02 03:07:29;;;;;;;27.63;15.68;;;-2.20;99.90;;;;;;5095477;28;20208;-64
2023/12/02 03:09:57;;;;;;;28.73;15.25;;;-2.20;99.90;;;;;;5095704;28;20644;-64
2023/12/02 03:12:24;;;;;;;28.13;15.32;;;-2.20;99.90;;;;;;5095047;28;20209;-66
2023/12/02 03:14:52;;;;;;;26.15;15.25;;;-2.20;99.90;;;;;;5094230;28;20645;-64
2023/12/02 03:17:19;;;;;;;27.50;14.40;;;-2.20;99.90;;;;;;5094830;28;20201;-63
2023/12/02 03:19:47;;;;;;;23.83;14.38;;;-2.20;99.90;;;;;;5095028;28;20232;-64
2023/12/02 03:22:14;;;;;;;33.03;14.90;;;-2.20;99.90;;;;;;5095776;28;20227;-64
2023/12/02 03:24:41;;;;;;;30.13;15.48;;;-2.20;99.90;;;;;;5095038;28;20234;-63
2023/12/02 03:27:08;;;;;;;29.75;16.20;;;-2.30;99.90;;;;;;5094667;28;20201;-64
2023/12/02 03:29:34;;;;;;;26.38;15.18;;;-2.20;99.90;;;;;;5094228;28;20540;-65
2023/12/02 03:32:03;;;;;;;26.60;14.43;;;-2.20;99.90;;;;;;5094771;28;20208;-65
2023/12/02 03:34:30;;;;;;;29.38;15.35;;;-2.20;99.90;;;;;;5116683;22;20224;-60
2023/12/02 03:36:56;;;;;;;28.05;15.35;;;-2.20;99.90;;;;;;5092881;28;20621;-61
2023/12/02 03:39:23;;;;;;;27.83;16.45;;;-2.20;99.90;;;;;;5092871;28;20227;-60
2023/12/02 03:41:50;;;;;;;29.50;15.60;;;-2.10;99.90;;;;;;5092916;28;20209;-60
2023/12/02 03:44:17;;;;;;;28.92;16.33;;;-2.10;99.90;;;;;;5093249;28;20230;-61
2023/12/02 03:46:44;;;;;;;28.33;14.95;;;-2.10;99.90;;;;;;5093101;28;20299;-61
2023/12/02 03:49:12;;;;;;;28.55;16.02;;;-2.10;99.90;;;;;;5093395;28;20201;-60
2023/12/02 03:51:39;;;;;;;30.67;15.50;;;-2.10;99.90;;;;;;5093460;28;20226;-61
2023/12/02 03:54:06;;;;;;;28.65;17.35;;;-2.10;99.90;;;;;;5093312;28;20224;-61
2023/12/02 03:56:33;;;;;;;27.85;14.63;;;-2.10;99.90;;;;;;5093296;28;20219;-60
2023/12/02 03:59:00;;;;;;;28.52;15.35;;;-2.10;99.90;;;;;;5093347;28;20223;-62
2023/12/02 04:01:26;;;;;;;30.42;15.95;;;-2.10;99.90;;;;;;5093183;28;20621;-61
2023/12/02 04:03:54;;;;;;;31.75;15.13;;;-2.20;99.90;;;;;;5092760;28;20216;-60
2023/12/02 04:06:22;;;;;;;25.35;14.15;;;-2.20;99.90;;;;;;5093385;28;20394;-60
2023/12/02 04:08:49;;;;;;;27.48;14.43;;;-2.20;99.90;;;;;;5092776;28;20206;-60
2023/12/02 04:12:39;;;;;;;26.20;13.25;;;-2.10;99.90;;;;;;5091147;27;20550;-61
2023/12/02 04:15:07;;;;;;;26.58;14.80;;;-2.20;99.90;;;;;;5090910;28;20254;-58
2023/12/02 04:17:34;;;;;;;26.50;15.43;;;-2.20;99.90;;;;;;5090514;28;20231;-61
2023/12/02 04:20:00;;;;;;;26.67;14.45;;;-2.20;99.90;;;;;;5090838;28;20208;-60
2023/12/02 04:22:27;;;;;;;25.60;14.45;;;-2.20;99.90;;;;;;5090492;28;20207;-62
2023/12/02 04:24:54;;;;;;;28.27;14.15;;;-2.20;99.90;;;;;;5091269;28;20199;-62
2023/12/02 04:27:21;;;;;;;31.10;15.50;;;-2.10;99.90;;;;;;5090586;28;20211;-62
2023/12/02 04:29:49;;;;;;;26.38;14.80;;;-2.20;99.90;;;;;;5090548;28;20207;-60
2023/12/02 04:32:15;;;;;;;29.88;15.38;;;-2.10;99.90;;;;;;5090261;28;20315;-60
2023/12/02 04:34:42;;;;;;;30.63;15.90;;;-2.10;99.90;;;;;;5090454;28;20228;-60
2023/12/02 04:37:09;;;;;;;25.27;14.40;;;-2.10;99.90;;;;;;5090051;28;20635;-60
2023/12/02 04:39:36;;;;;;;24.25;14.88;;;-2.10;99.90;;;;;;5090476;28;20204;-60
2023/12/02 04:42:03;;;;;;;28.13;15.10;;;-2.10;99.90;;;;;;5090155;28;20200;-60
2023/12/02 04:44:29;;;;;;;32.95;15.60;;;-2.10;99.90;;;;;;5090493;28;20255;-60
2023/12/02 04:46:57;;;;;;;35.33;17.13;;;-2.10;99.90;;;;;;5090114;28;20543;-60
2023/12/02 04:49:24;;;;;;;31.08;16.10;;;-2.10;99.90;;;;;;5090342;28;20200;-60
2023/12/02 04:51:52;;;;;;;26.65;14.27;;;-2.10;99.90;;;;;;5090110;28;20220;-60
2023/12/02 04:54:19;;;;;;;28.65;16.27;;;-2.10;99.90;;;;;;5090166;28;20232;-60
2023/12/02 04:56:46;;;;;;;26.58;15.45;;;-2.10;99.90;;;;;;5090178;28;20212;-60
2023/12/02 04:59:13;;;;;;;33.40;16.92;;;-2.10;99.90;;;;;;5089901;28;20666;-60
2023/12/02 05:01:40;;;;;;;29.40;16.05;;;-2.10;99.90;;;;;;5090432;28;20287;-60
2023/12/02 05:04:08;;;;;;;29.20;15.80;;;-2.10;99.90;;;;;;5090332;28;20227;-59
2023/12/02 05:06:35;;;;;;;26.90;14.82;;;-2.00;99.90;;;;;;5090427;28;20204;-60
2023/12/02 05:09:02;;;;;;;25.73;14.38;;;-2.00;99.90;;;;;;5090034;28;20707;-61
2023/12/02 05:11:29;;;;;;;26.45;15.20;;;-2.00;99.90;;;;;;5089742;28;20772;-60
2023/12/02 05:13:56;;;;;;;26.33;14.32;;;-2.00;99.90;;;;;;5092471;28;20706;-60
2023/12/02 05:16:22;;;;;;;27.77;15.27;;;-2.00;99.90;;;;;;5091777;28;20578;-60
2023/12/02 05:18:49;;;;;;;29.98;15.07;;;-2.00;99.90;;;;;;5090431;28;20231;-60
2023/12/02 05:21:18;;;;;;;27.05;15.65;;;-2.00;99.90;;;;;;5089809;28;20197;-60
2023/12/02 05:23:46;;;;;;;28.90;15.73;;;-2.00;99.90;;;;;;5077783;28;20225;-61
2023/12/02 05:26:13;;;;;;;32.50;17.92;;;-2.00;99.90;;;;;;5076782;28;20205;-60
2023/12/02 05:28:40;;;;;;;26.98;15.85;;;-2.00;99.90;;;;;;5076765;28;20197;-59
2023/12/02 05:31:08;;;;;;;30.35;17.23;;;-2.00;99.90;;;;;;5077738;28;20249;-60
2023/12/02 05:33:34;;;;;;;28.25;15.05;;;-2.00;99.90;;;;;;5080933;28;20217;-59
2023/12/02 05:36:01;;;;;;;27.48;15.80;;;-2.00;99.90;;;;;;5079912;28;20201;-61
2023/12/02 05:38:29;;;;;;;29.60;16.52;;;-1.90;99.90;;;;;;5079593;28;20215;-59
2023/12/02 05:40:56;;;;;;;28.42;16.08;;;-1.90;99.90;;;;;;5079755;28;20232;-59
2023/12/02 05:43:23;;;;;;;32.40;15.95;;;-1.90;99.90;;;;;;5079773;28;20224;-60
2023/12/02 05:45:50;;;;;;;31.35;16.40;;;-1.90;99.90;;;;;;5079201;28;20201;-61
2023/12/02 05:48:17;;;;;;;28.35;15.43;;;-1.90;99.90;;;;;;5077299;28;20580;-60
2023/12/02 05:50:43;;;;;;;31.23;18.05;;;-1.90;99.90;;;;;;5075577;28;20689;-61
2023/12/02 05:53:10;;;;;;;28.58;16.90;;;-1.90;99.90;;;;;;5076067;28;20568;-60
2023/12/02 05:55:38;;;;;;;30.02;15.75;;;-1.90;99.90;;;;;;5076165;28;20553;-61
2023/12/02 05:58:05;;;;;;;32.80;17.75;;;-1.90;99.90;;;;;;5075612;28;20578;-60
2023/12/02 06:00:35;;;;;;;32.80;17.60;;;-1.90;99.90;;;;;;5075688;28;20280;-59
2023/12/02 06:03:02;;;;;;;32.47;16.63;;;-1.90;99.90;;;;;;5075369;28;20412;-59
2023/12/02 06:05:29;;;;;;;31.10;18.88;;;-1.90;99.90;;;;;;5075350;28;20205;-61
2023/12/02 06:07:56;;;;;;;30.02;16.40;;;-1.90;99.90;;;;;;5075268;28;20211;-60
2023/12/02 06:10:22;;;;;;;30.50;18.10;;;-1.90;99.90;;;;;;5075084;28;20207;-60
2023/12/02 06:12:51;;;;;;;28.80;17.40;;;-1.90;99.90;;;;;;5075114;28;20221;-59
2023/12/02 06:15:18;;;;;;;29.15;18.35;;;-1.90;99.90;;;;;;5075115;28;20572;-60
2023/12/02 06:17:45;;;;;;;29.17;17.92;;;-1.90;99.90;;;;;;5075762;28;20234;-60
2023/12/02 06:20:11;;;;;;;29.40;17.13;;;-1.90;99.90;;;;;;5075361;28;20197;-60
2023/12/02 06:22:38;;;;;;;32.15;18.00;;;-1.90;99.90;;;;;;5075357;28;20546;-61
2023/12/02 06:25:06;;;;;;;31.15;17.27;;;-1.80;99.90;;;;;;5075009;28;20666;-60
2023/12/02 06:27:33;;;;;;;33.63;17.95;;;-1.80;99.90;;;;;;5076062;28;20663;-61
2023/12/02 06:30:01;;;;;;;30.13;17.08;;;-1.80;99.90;;;;;;5075272;28;20205;-60
2023/12/02 06:32:28;;;;;;;30.92;18.88;;;-1.80;99.90;;;;;;5075040;28;20255;-61
2023/12/02 06:34:55;;;;;;;33.63;18.05;;;-1.70;99.90;;;;;;5073795;28;20302;-60
2023/12/02 06:37:22;;;;;;;31.40;16.17;;;-1.70;99.90;;;;;;5074459;28;20284;-60
2023/12/02 06:39:48;;;;;;;33.60;17.98;;;-1.70;99.90;;;;;;5074905;28;20574;-60
2023/12/02 06:42:15;;;;;;;33.90;18.17;;;-1.70;99.90;;;;;;5074515;28;20201;-62
2023/12/02 06:44:42;;;;;;;33.83;18.42;;;-1.70;99.90;;;;;;5074261;28;20221;-60
2023/12/02 06:47:10;;;;;;;32.30;18.38;;;-1.60;99.90;;;;;;5074189;28;20205;-60
2023/12/02 06:49:37;;;;;;;33.35;17.67;;;-1.70;99.90;;;;;;5073970;28;20757;-60
2023/12/02 06:52:04;;;;;;;34.55;20.20;;;-1.70;99.90;;;;;;5074273;28;20643;-60
2023/12/02 06:54:36;;;;;;;33.28;17.60;;;-1.70;99.90;;;;;;5074523;28;20221;-63
2023/12/02 06:57:03;;;;;;;36.53;17.42;;;-1.60;99.90;;;;;;5074668;28;20196;-63
2023/12/02 06:59:29;;;;;;;31.80;17.55;;;-1.70;99.90;;;;;;5074384;28;20280;-61
2023/12/02 07:01:56;;;;;;;29.92;16.88;;;-1.70;99.90;;;;;;5074625;28;20197;-60
2023/12/02 07:04:24;;;;;;;32.25;18.33;;;-1.70;99.90;;;;;;5074494;28;20225;-59
2023/12/02 07:06:51;;;;;;;28.65;16.92;;;-1.70;99.90;;;;;;5074174;28;20211;-59
2023/12/02 07:09:18;;;;;;;34.58;17.90;;;-1.70;99.90;;;;;;5074277;28;20208;-60
2023/12/02 07:11:45;;;;;;;32.30;17.80;;;-1.70;99.90;;;;;;5073766;28;20256;-61
2023/12/02 07:14:11;;;;;;;30.45;17.13;;;-1.70;99.90;;;;;;5074246;28;20221;-61
2023/12/02 07:16:38;;;;;;;30.17;16.15;;;-1.70;99.90;;;;;;5074118;28;20209;-59
2023/12/02 07:19:05;;;;;;;32.38;17.10;;;-1.60;99.90;;;;;;5073794;28;20208;-60
2023/12/02 07:21:33;;;;;;;28.55;16.15;;;-1.70;99.90;;;;;;5073871;28;20291;-60
2023/12/02 07:24:00;;;;;;;32.90;18.45;;;-1.70;99.90;;;;;;5073327;28;20228;-60
2023/12/02 07:26:27;;;;;;;28.67;15.82;;;-1.70;99.90;;;;;;5073948;28;20585;-59
2023/12/02 07:28:53;;;;;;;35.45;17.38;;;-1.70;99.90;;;;;;5073758;28;20556;-60
2023/12/02 07:31:20;;;;;;;31.80;17.67;;;-1.70;99.90;;;;;;5073507;28;20659;-60
2023/12/02 07:33:47;;;;;;;32.28;17.25;;;-1.70;99.90;;;;;;5073077;28;20312;-60
2023/12/02 07:36:14;;;;;;;27.30;18.23;;;-1.70;99.90;;;;;;5073613;28;20270;-60
2023/12/02 07:38:42;;;;;;;26.35;14.80;;;-1.70;99.90;;;;;;5073835;28;20209;-60
2023/12/02 07:41:09;;;;;;;31.85;18.70;;;-1.70;99.90;;;;;;5073550;28;20205;-59
2023/12/02 07:43:36;;;;;;;36.08;17.77;;;-1.70;99.90;;;;;;5073829;28;20280;-60
2023/12/02 07:46:03;;;;;;;38.70;17.00;;;-1.70;99.90;;;;;;5073547;28;20207;-59
2023/12/02 07:48:29;;;;;;;32.50;17.10;;;-1.70;99.90;;;;;;5073993;28;20197;-60
2023/12/02 07:50:56;;;;;;;32.88;16.45;;;-1.60;99.90;;;;;;5074430;28;20204;-60
2023/12/02 07:53:23;;;;;;;35.00;17.95;;;-1.60;99.90;;;;;;5074046;28;20233;-60
2023/12/02 07:55:51;;;;;;;34.80;17.27;;;-1.60;99.90;;;;;;5073767;28;20209;-59
2023/12/02 07:58:18;;;;;;;31.88;16.40;;;-1.60;99.90;;;;;;5073544;28;20205;-58
2023/12/02 08:00:45;;;;;;;29.40;16.63;;;-1.60;99.90;;;;;;5073881;28;20207;-65
2023/12/02 08:03:11;;;;;;;31.08;16.95;;;-1.60;99.90;;;;;;5073398;28;20219;-60
2023/12/02 08:05:38;;;;;;;33.53;16.48;;;-1.60;99.90;;;;;;5073451;28;20203;-59
2023/12/02 08:08:05;;;;;;;33.90;17.15;;;-1.60;99.90;;;;;;5073339;28;20212;-59
2023/12/02 08:10:32;;;;;;;35.17;15.75;;;-1.60;99.90;;;;;;5072716;28;20216;-59
2023/12/02 08:13:00;;;;;;;28.75;15.77;;;-1.60;99.90;;;;;;5072629;28;20220;-59
2023/12/02 08:15:27;;;;;;;30.65;16.67;;;-1.70;99.90;;;;;;5073131;28;20208;-59
2023/12/02 08:17:53;;;;;;;29.45;15.90;;;-1.70;99.90;;;;;;5072947;28;20204;-60
2023/12/02 08:20:20;;;;;;;31.73;17.88;;;-1.70;99.90;;;;;;5073257;28;20211;-60
2023/12/02 08:22:47;;;;;;;30.75;16.30;;;-1.60;99.90;;;;;;5087528;28;20223;-59
2023/12/02 08:25:14;;;;;;;32.88;17.50;;;-1.60;99.90;;;;;;5081821;28;20201;-59
2023/12/02 08:27:40;;;;;;;31.13;16.35;;;-1.60;99.90;;;;;;5077492;28;20211;-60
2023/12/02 08:30:10;;;;;;;36.90;18.17;;;-1.60;99.90;;;;;;5074590;28;20197;-60
2023/12/02 08:32:36;;;;;;;30.42;17.90;;;-1.60;99.90;;;;;;5076041;28;20231;-59
2023/12/02 08:35:04;;;;;;;33.50;17.33;;;-1.50;99.90;;;;;;5074309;28;20203;-59
2023/12/02 08:37:30;;;;;;;29.52;15.32;;;-1.50;99.90;;;;;;5072728;28;20201;-60
2023/12/02 08:39:57;;;;;;;32.45;17.95;;;-1.50;99.90;;;;;;5072787;28;20201;-58
2023/12/02 08:42:24;;;;;;;33.10;17.85;;;-1.50;99.90;;;;;;5072353;28;20675;-61
2023/12/02 08:44:51;;;;;;;29.80;17.20;;;-1.50;99.90;;;;;;5072486;28;20671;-59
2023/12/02 08:47:19;;;;;;;30.88;15.70;;;-1.50;99.90;;;;;;5072593;28;20201;-60
2023/12/02 08:49:46;;;;;;;30.08;19.38;;;-1.50;99.90;;;;;;5072901;28;20208;-60
2023/12/02 08:52:12;;;;;;;31.40;16.27;;;-1.50;99.90;;;;;;5072351;28;20217;-59
2023/12/02 08:54:39;;;;;;;32.70;16.40;;;-1.50;99.90;;;;;;5072303;28;20243;-60
2023/12/02 08:57:06;;;;;;;28.42;16.33;;;-1.50;99.90;;;;;;5072524;28;20278;-61
2023/12/02 08:59:33;;;;;;;34.28;17.25;;;-1.40;99.90;;;;;;5076532;28;20216;-60
2023/12/02 09:02:00;;;;;;;32.90;14.80;;;-1.30;99.90;;;;;;5076272;28;20198;-60
2023/12/02 09:04:28;;;;;;;36.85;17.70;;;-1.30;99.90;;;;;;5076115;28;20231;-60
2023/12/02 09:06:55;;;;;;;35.10;18.15;;;-1.30;99.90;;;;;;5076513;28;20205;-60
2023/12/02 09:09:22;;;;;;;32.35;17.10;;;-1.30;99.90;;;;;;5076370;28;20211;-60
2023/12/02 09:11:49;;;;;;;30.98;17.40;;;-1.30;99.90;;;;;;5075730;28;20217;-60
2023/12/02 09:14:15;;;;;;;31.10;16.02;;;-1.30;99.90;;;;;;5075899;28;20575;-58
2023/12/02 09:16:46;;;;;;;32.85;17.60;;;-1.30;99.90;;;;;;5076657;28;20197;-58
2023/12/02 09:19:45;;;;;;;36.75;18.02;;;-1.30;99.90;;;;;;5076177;28;20190;-61
2023/12/02 09:22:44;;;;;;;32.28;16.65;;;-1.30;99.90;;;;;;5076069;28;20201;-60
2023/12/02 09:25:33;;;;;;;34.08;17.08;;;-1.20;99.90;;;;;;5075975;28;20223;-60
2023/12/02 09:28:26;;;;;;;31.33;16.23;;;-1.20;99.90;;;;;;5065315;28;20212;-59
2023/12/02 09:30:59;;;;;;;29.52;15.45;;;-1.10;99.90;;;;;;5076471;28;20223;-60
2023/12/02 09:33:27;;;;;;;37.88;19.35;;;-1.10;99.90;;;;;;5075560;28;20229;-59
2023/12/02 09:35:57;;;;;;;29.50;16.50;;;-1.10;99.90;;;;;;5075211;28;20205;-59
2023/12/02 09:38:25;;;;;;;32.13;17.25;;;-1.10;99.90;;;;;;5075923;28;20200;-60
2023/12/02 09:41:24;;;;;;;30.55;17.27;;;-1.00;99.90;;;;;;5075509;28;20747;-62
2023/12/02 09:44:18;;;;;;;34.47;16.75;;;-1.00;99.90;;;;;;5075645;28;20221;-61
2023/12/02 09:47:04;;;;;;;26.40;16.05;;;-1.00;99.90;;;;;;5075444;28;20199;-61
2023/12/02 09:50:07;;;;;;;33.95;17.65;;;-1.00;99.90;;;;;;5075483;28;20609;-59
2023/12/02 09:53:01;;;;;;;32.67;17.08;;;-1.00;99.90;;;;;;5073908;28;20240;-60
2023/12/02 09:55:36;;;;;;;30.52;17.75;;;-1.00;99.90;;;;;;5077567;28;20292;-61
2023/12/02 09:58:17;;;;;;;31.80;17.95;;;-0.90;99.90;;;;;;5075969;28;20541;-63
2023/12/02 10:00:50;;;;;;;35.55;17.73;;;-0.90;99.90;;;;;;5075440;28;20191;-64
2023/12/02 10:03:44;;;;;;;28.25;15.80;;;-0.90;99.90;;;;;;5075759;28;20270;-60
2023/12/02 10:06:24;;;;;;;31.55;18.35;;;-0.90;99.90;;;;;;5076193;28;20186;-62
2023/12/02 10:09:01;;;;;;;42.95;19.70;;;-0.90;99.90;;;;;;5075880;28;20189;-64
2023/12/02 10:11:35;;;;;;;33.05;17.25;;;-0.90;99.90;;;;;;5075337;28;20222;-63
2023/12/02 10:14:10;;;;;;;32.55;17.30;;;-0.90;99.90;;;;;;5076359;28;20694;-61
2023/12/02 10:16:38;;;;;;;31.20;16.50;;;-0.90;99.90;;;;;;5079965;28;20181;-62
2023/12/02 10:19:08;;;;;;;35.80;16.48;;;-1.00;99.90;;;;;;5078777;28;20209;-63
2023/12/02 10:21:37;;;;;;;30.27;16.70;;;-1.00;99.90;;;;;;5078108;28;20223;-63
2023/12/02 10:24:10;;;;;;;26.63;15.27;;;-1.00;99.90;;;;;;5079732;28;20213;-64
2023/12/02 10:26:43;;;;;;;27.92;14.05;;;-0.90;99.90;;;;;;5077617;28;20204;-63
2023/12/02 10:29:17;;;;;;;30.38;16.65;;;-0.90;99.90;;;;;;5076772;28;20207;-62
2023/12/02 10:31:58;;;;;;;32.28;17.60;;;-0.90;99.90;;;;;;5075697;28;20279;-62
2023/12/02 10:34:29;;;;;;;26.48;14.90;;;-0.90;99.90;;;;;;5075840;28;20225;-63
2023/12/02 10:37:00;;;;;;;27.58;16.42;;;-0.80;99.90;;;;;;5079988;28;20200;-62
2023/12/02 10:39:35;;;;;;;34.65;18.08;;;-0.80;99.90;;;;;;5079476;28;20186;-62
2023/12/02 10:42:04;;;;;;;32.47;17.08;;;-0.70;99.90;;;;;;5076526;28;20557;-65
2023/12/02 10:44:33;;;;;;;32.78;17.27;;;-0.70;99.90;;;;;;5075876;28;20658;-62
2023/12/02 10:47:00;;;;;;;32.15;16.75;;;-0.70;99.90;;;;;;5076436;28;20208;-61
2023/12/02 10:49:28;;;;;;;31.85;17.45;;;-0.80;99.90;;;;;;5074774;28;20598;-61
2023/12/02 10:51:55;;;;;;;37.72;17.95;;;-0.80;99.90;;;;;;5074967;28;20757;-60
2023/12/02 10:54:25;;;;;;;30.38;15.48;;;-0.80;99.90;;;;;;5075504;28;20229;-61
2023/12/02 10:57:00;;;;;;;33.40;16.38;;;-0.80;99.90;;;;;;5076291;28;20201;-63
2023/12/02 10:59:34;;;;;;;33.00;16.88;;;-0.80;99.90;;;;;;5078279;28;20184;-62
2023/12/02 11:02:16;;;;;;;30.40;16.70;;;-0.80;99.90;;;;;;5078263;28;20189;-63
2023/12/02 11:04:47;;;;;;;31.52;17.45;;;-0.80;99.90;;;;;;5078639;28;20221;-62
2023/12/02 11:07:18;;;;;;;33.50;17.50;;;-0.90;99.90;;;;;;5076336;28;20178;-62
2023/12/02 11:09:54;;;;;;;32.17;18.05;;;-0.90;99.90;;;;;;5075604;28;20288;-62
2023/12/02 11:12:27;;;;;;;33.53;17.80;;;-0.80;99.90;;;;;;5074647;28;20208;-63
2023/12/02 11:14:59;;;;;;;34.47;16.08;;;-0.80;99.90;;;;;;5074978;28;20196;-62
2023/12/02 11:17:38;;;;;;;30.77;17.13;;;-0.80;99.90;;;;;;5075639;28;20295;-62
2023/12/02 11:20:16;;;;;;;33.45;18.92;;;-0.70;99.90;;;;;;5076014;28;20189;-61
2023/12/02 11:23:00;;;;;;;36.63;17.10;;;-0.70;99.90;;;;;;5075108;28;20228;-62
2023/12/02 11:25:35;;;;;;;34.17;17.40;;;-0.70;99.90;;;;;;5075748;28;20195;-62
2023/12/02 11:28:06;;;;;;;34.78;18.90;;;-0.70;99.90;;;;;;5075186;28;20283;-62
2023/12/02 11:30:50;;;;;;;32.15;16.95;;;-0.60;99.90;;;;;;5074517;28;20193;-61
2023/12/02 11:33:25;;;;;;;32.92;17.25;;;-0.60;99.90;;;;;;5073913;28;20596;-61
2023/12/02 11:36:02;;;;;;;32.97;17.60;;;-0.60;99.90;;;;;;5074192;28;20195;-62
2023/12/02 11:38:33;;;;;;;40.95;18.98;;;-0.70;99.90;;;;;;5074396;28;20630;-61
2023/12/02 11:41:14;;;;;;;32.20;16.27;;;-0.70;99.90;;;;;;5073835;28;20208;-62
2023/12/02 11:43:53;;;;;;;31.30;17.20;;;-0.70;99.90;;;;;;5074121;28;20217;-63
2023/12/02 11:46:26;;;;;;;37.75;18.38;;;-0.70;99.90;;;;;;5074513;28;20185;-62
2023/12/02 11:49:08;;;;;;;34.85;17.70;;;-0.70;99.90;;;;;;5074136;28;20224;-63
2023/12/02 11:51:49;;;;;;;34.50;16.85;;;-0.80;99.90;;;;;;5074248;28;20189;-63
2023/12/02 11:54:31;;;;;;;37.05;18.05;;;-0.70;99.90;;;;;;5074401;28;20256;-63
2023/12/02 11:57:16;;;;;;;37.17;19.02;;;-0.80;99.90;;;;;;5075360;28;20192;-62
2023/12/02 12:00:03;;;;;;;31.65;16.02;;;-0.70;99.90;;;;;;5075448;28;20202;-61
2023/12/02 12:02:46;;;;;;;35.20;17.52;;;-0.70;99.90;;;;;;5077774;28;20199;-64
2023/12/02 12:05:33;;;;;;;31.42;16.85;;;-0.70;99.90;;;;;;5080032;28;20185;-64
2023/12/02 12:08:10;;;;;;;32.33;16.77;;;-0.70;99.90;;;;;;5077290;28;20635;-64
2023/12/02 12:10:38;;;;;;;27.80;16.13;;;-0.70;99.90;;;;;;5077070;28;20215;-63
2023/12/02 12:13:08;;;;;;;30.65;17.10;;;-0.70;99.90;;;;;;5076498;28;20304;-65
2023/12/02 12:15:36;;;;;;;33.65;17.73;;;-0.70;99.90;;;;;;5075094;28;20554;-65
2023/12/02 12:18:05;;;;;;;37.00;18.20;;;-0.60;99.90;;;;;;5076313;28;20247;-64
2023/12/02 12:20:32;;;;;;;30.75;16.65;;;-0.60;99.90;;;;;;5075950;28;20201;-63
2023/12/02 12:22:59;;;;;;;33.08;16.70;;;-0.50;99.90;;;;;;5076604;28;20227;-63
2023/12/02 12:25:29;;;;;;;30.77;16.40;;;-0.50;99.90;;;;;;5074068;28;20291;-64
2023/12/02 12:28:01;;;;;;;34.65;18.70;;;-0.50;99.90;;;;;;5074150;28;20243;-64
2023/12/02 12:30:44;;;;;;;32.80;18.10;;;-0.40;99.90;;;;;;5073326;28;20189;-63
2023/12/02 12:33:13;;;;;;;35.53;18.80;;;-0.40;99.90;;;;;;5075586;28;20237;-64
2023/12/02 12:35:41;;;;;;;35.05;19.02;;;-0.40;99.90;;;;;;5077381;28;20197;-64
2023/12/02 12:38:09;;;;;;;33.28;16.35;;;-0.40;99.90;;;;;;5077191;28;20208;-64
2023/12/02 12:40:37;;;;;;;34.72;17.73;;;-0.40;99.90;;;;;;5078288;28;20346;-63